sensor_id;sensor_type;location;lat;lon;timestamp;temperature;humidity
18450;DHT22;9354;50.194;7.690;2023-04-08T00:01:42;8.40;99.90
18450;DHT22;9354;50.194;7.690;2023-04-08T00:04:09;8.40;99.90
18450;DHT22;9354;50.194;7.690;2023-04-08T00:06:39;8.40;99.90
18450;DHT22;9354;50.194;7.690;2023-04-08T00:09:06;8.40;99.90
18450;DHT22;9354;50.194;7.690;2023-04-08T00:11:34;8.40;99.90
18450;DHT22;9354;50.194;7.690;2023-04-08T00:14:03;8.40;99.90
18450;DHT22;9354;50.194;7.690;2023-04-08T00:16:32;8.30;99.90
18450;DHT22;9354;50.194;7.690;2023-04-08T00:18:59;8.30;99.90
18450;DHT22;9354;50.194;7.690;2023-04-08T00:21:26;8.30;99.90
18450;DHT22;9354;50.194;7.690;2023-04-08T00:23:54;8.30;99.90
18450;DHT22;9354;50.194;7.690;2023-04-08T00:26:22;8.30;99.90
18450;DHT22;9354;50.194;7.690;2023-04-08T00:28:49;8.40;99.90
18450;DHT22;9354;50.194;7.690;2023-04-08T00:31:16;8.40;99.90
18450;DHT22;9354;50.194;7.690;2023-04-08T00:33:45;8.40;99.90
18450;DHT22;9354;50.194;7.690;2023-04-08T00:36:13;8.40;99.90
18450;DHT22;9354;50.194;7.690;2023-04-08T00:38:40;8.40;99.90
18450;DHT22;9354;50.194;7.690;2023-04-08T00:41:07;8.40;99.90
18450;DHT22;9354;50.194;7.690;2023-04-08T00:43:35;8.40;99.90
18450;DHT22;9354;50.194;7.690;2023-04-08T00:46:02;8.40;99.90
18450;DHT22;9354;50.194;7.690;2023-04-08T00:48:31;8.40;99.90
18450;DHT22;9354;50.194;7.690;2023-04-08T00:50:59;8.40;99.90
18450;DHT22;9354;50.194;7.690;2023-04-08T00:53:29;8.40;99.90
18450;DHT22;9354;50.194;7.690;2023-04-08T00:55:56;8.40;99.90
18450;DHT22;9354;50.194;7.690;2023-04-08T00:58:27;8.40;99.90
18450;DHT22;9354;50.194;7.690;2023-04-08T01:00:59;8.40;99.90
18450;DHT22;9354;50.194;7.690;2023-04-08T01:03:36;8.30;99.90
18450;DHT22;9354;50.194;7.690;2023-04-08T01:06:14;8.30;99.90
18450;DHT22;9354;50.194;7.690;2023-04-08T01:08:45;8.30;99.90
18450;DHT22;9354;50.194;7.690;2023-04-08T01:11:13;8.30;99.90
18450;DHT22;9354;50.194;7.690;2023-04-08T01:13:42;8.30;99.90
18450;DHT22;9354;50.194;7.690;2023-04-08T01:16:13;8.30;99.90
18450;DHT22;9354;50.194;7.690;2023-04-08T01:18:43;8.30;99.90
18450;DHT22;9354;50.194;7.690;2023-04-08T01:21:14;8.30;99.90
18450;DHT22;9354;50.194;7.690;2023-04-08T01:23:50;8.30;99.90
18450;DHT22;9354;50.194;7.690;2023-04-08T01:26:23;8.30;99.90
18450;DHT22;9354;50.194;7.690;2023-04-08T01:28:52;8.30;99.90
18450;DHT22;9354;50.194;7.690;2023-04-08T01:31:21;8.30;99.90
18450;DHT22;9354;50.194;7.690;2023-04-08T01:33:51;8.30;99.90
18450;DHT22;9354;50.194;7.690;2023-04-08T01:36:19;8.30;99.90
18450;DHT22;9354;50.194;7.690;2023-04-08T01:38:47;8.30;99.90
18450;DHT22;9354;50.194;7.690;2023-04-08T01:41:16;8.30;99.90
18450;DHT22;9354;50.194;7.690;2023-04-08T01:43:46;8.30;99.90
18450;DHT22;9354;50.194;7.690;2023-04-08T01:46:14;8.20;99.90
18450;DHT22;9354;50.194;7.690;2023-04-08T01:48:43;8.20;99.90
18450;DHT22;9354;50.194;7.690;2023-04-08T01:51:11;8.20;99.90
18450;DHT22;9354;50.194;7.690;2023-04-08T01:53:39;8.20;99.90
18450;DHT22;9354;50.194;7.690;2023-04-08T01:56:10;8.20;99.90
18450;DHT22;9354;50.194;7.690;2023-04-08T01:58:40;8.20;99.90
18450;DHT22;9354;50.194;7.690;2023-04-08T02:01:13;8.20;99.90
18450;DHT22;9354;50.194;7.690;2023-04-08T02:03:42;8.20;99.90
18450;DHT22;9354;50.194;7.690;2023-04-08T02:06:10;8.10;99.90
18450;DHT22;9354;50.194;7.690;2023-04-08T02:08:37;8.10;99.90
18450;DHT22;9354;50.194;7.690;2023-04-08T02:11:05;8.10;99.90
18450;DHT22;9354;50.194;7.690;2023-04-08T02:13:32;8.10;99.90
18450;DHT22;9354;50.194;7.690;2023-04-08T02:16:05;8.10;99.90
18450;DHT22;9354;50.194;7.690;2023-04-08T02:18:36;8.10;99.90
18450;DHT22;9354;50.194;7.690;2023-04-08T02:21:10;8.10;99.90
18450;DHT22;9354;50.194;7.690;2023-04-08T02:23:38;8.10;99.90
18450;DHT22;9354;50.194;7.690;2023-04-08T02:26:11;8.10;99.90
18450;DHT22;9354;50.194;7.690;2023-04-08T02:28:40;8.10;99.90
18450;DHT22;9354;50.194;7.690;2023-04-08T02:31:10;8.10;99.90
18450;DHT22;9354;50.194;7.690;2023-04-08T02:33:40;8.10;99.90
18450;DHT22;9354;50.194;7.690;2023-04-08T02:36:09;8.10;99.90
18450;DHT22;9354;50.194;7.690;2023-04-08T02:38:37;8.10;99.90
18450;DHT22;9354;50.194;7.690;2023-04-08T02:41:05;8.10;99.90
18450;DHT22;9354;50.194;7.690;2023-04-08T02:43:32;8.10;99.90
18450;DHT22;9354;50.194;7.690;2023-04-08T02:46:00;8.10;99.90
18450;DHT22;9354;50.194;7.690;2023-04-08T02:48:29;8.00;99.90
18450;DHT22;9354;50.194;7.690;2023-04-08T02:50:57;8.00;99.90
18450;DHT22;9354;50.194;7.690;2023-04-08T02:53:25;8.00;99.90
18450;DHT22;9354;50.194;7.690;2023-04-08T02:55:52;8.00;99.90
18450;DHT22;9354;50.194;7.690;2023-04-08T02:58:19;8.00;99.90
18450;DHT22;9354;50.194;7.690;2023-04-08T03:00:47;8.00;99.90
18450;DHT22;9354;50.194;7.690;2023-04-08T03:03:14;8.00;99.90
18450;DHT22;9354;50.194;7.690;2023-04-08T03:05:41;8.00;99.90
18450;DHT22;9354;50.194;7.690;2023-04-08T03:08:10;8.00;99.90
18450;DHT22;9354;50.194;7.690;2023-04-08T03:10:38;8.00;99.90
18450;DHT22;9354;50.194;7.690;2023-04-08T03:13:05;8.00;99.90
18450;DHT22;9354;50.194;7.690;2023-04-08T03:15:32;8.00;99.90
18450;DHT22;9354;50.194;7.690;2023-04-08T03:18:00;7.90;99.90
18450;DHT22;9354;50.194;7.690;2023-04-08T03:20:27;7.90;99.90
18450;DHT22;9354;50.194;7.690;2023-04-08T03:22:54;7.90;99.90
18450;DHT22;9354;50.194;7.690;2023-04-08T03:25:23;7.90;99.90
18450;DHT22;9354;50.194;7.690;2023-04-08T03:27:51;8.00;99.90
18450;DHT22;9354;50.194;7.690;2023-04-08T03:30:18;7.90;99.90
18450;DHT22;9354;50.194;7.690;2023-04-08T03:32:46;8.00;99.90
18450;DHT22;9354;50.194;7.690;2023-04-08T03:35:13;8.00;99.90
18450;DHT22;9354;50.194;7.690;2023-04-08T03:37:41;8.00;99.90
18450;DHT22;9354;50.194;7.690;2023-04-08T03:40:09;8.00;99.90
18450;DHT22;9354;50.194;7.690;2023-04-08T03:42:38;8.00;99.90
18450;DHT22;9354;50.194;7.690;2023-04-08T03:45:06;8.00;99.90
18450;DHT22;9354;50.194;7.690;2023-04-08T03:47:34;8.00;99.90
18450;DHT22;9354;50.194;7.690;2023-04-08T03:50:01;8.10;99.90
18450;DHT22;9354;50.194;7.690;2023-04-08T03:52:29;8.10;99.90
18450;DHT22;9354;50.194;7.690;2023-04-08T03:54:56;8.10;99.90
18450;DHT22;9354;50.194;7.690;2023-04-08T03:57:24;8.10;99.90
18450;DHT22;9354;50.194;7.690;2023-04-08T03:59:53;8.10;99.90
18450;DHT22;9354;50.194;7.690;2023-04-08T04:02:20;8.10;99.90
18450;DHT22;9354;50.194;7.690;2023-04-08T04:04:48;8.10;99.90
18450;DHT22;9354;50.194;7.690;2023-04-08T04:07:15;8.10;99.90
18450;DHT22;9354;50.194;7.690;2023-04-08T04:09:42;8.10;99.90
18450;DHT22;9354;50.194;7.690;2023-04-08T04:12:10;8.10;99.90
18450;DHT22;9354;50.194;7.690;2023-04-08T04:14:37;8.10;99.90
18450;DHT22;9354;50.194;7.690;2023-04-08T04:17:06;8.10;99.90
18450;DHT22;9354;50.194;7.690;2023-04-08T04:19:33;8.10;99.90
18450;DHT22;9354;50.194;7.690;2023-04-08T04:22:01;8.10;99.90
18450;DHT22;9354;50.194;7.690;2023-04-08T04:24:29;8.10;99.90
18450;DHT22;9354;50.194;7.690;2023-04-08T04:26:56;8.10;99.90
18450;DHT22;9354;50.194;7.690;2023-04-08T04:29:23;8.10;99.90
18450;DHT22;9354;50.194;7.690;2023-04-08T04:31:51;8.10;99.90
18450;DHT22;9354;50.194;7.690;2023-04-08T04:34:19;8.10;99.90
18450;DHT22;9354;50.194;7.690;2023-04-08T04:36:47;8.10;99.90
18450;DHT22;9354;50.194;7.690;2023-04-08T04:39:14;8.10;99.90
18450;DHT22;9354;50.194;7.690;2023-04-08T04:41:41;8.10;99.90
18450;DHT22;9354;50.194;7.690;2023-04-08T04:44:09;8.10;99.90
18450;DHT22;9354;50.194;7.690;2023-04-08T04:46:37;8.10;99.90
18450;DHT22;9354;50.194;7.690;2023-04-08T04:49:04;8.10;99.90
18450;DHT22;9354;50.194;7.690;2023-04-08T04:51:33;8.10;99.90
18450;DHT22;9354;50.194;7.690;2023-04-08T04:54:00;8.10;99.90
18450;DHT22;9354;50.194;7.690;2023-04-08T04:56:27;8.10;99.90
18450;DHT22;9354;50.194;7.690;2023-04-08T04:58:55;8.10;99.90
18450;DHT22;9354;50.194;7.690;2023-04-08T05:01:22;8.10;99.90
18450;DHT22;9354;50.194;7.690;2023-04-08T05:03:50;8.10;99.90
18450;DHT22;9354;50.194;7.690;2023-04-08T05:06:17;8.10;99.90
18450;DHT22;9354;50.194;7.690;2023-04-08T05:08:46;8.10;99.90
18450;DHT22;9354;50.194;7.690;2023-04-08T05:11:13;8.20;99.90
18450;DHT22;9354;50.194;7.690;2023-04-08T05:13:43;8.20;99.90
18450;DHT22;9354;50.194;7.690;2023-04-08T05:16:10;8.20;99.90
18450;DHT22;9354;50.194;7.690;2023-04-08T05:18:38;8.20;99.90
18450;DHT22;9354;50.194;7.690;2023-04-08T05:21:05;8.20;99.90
18450;DHT22;9354;50.194;7.690;2023-04-08T05:23:33;8.20;99.90
18450;DHT22;9354;50.194;7.690;2023-04-08T05:26:05;8.20;99.90
18450;DHT22;9354;50.194;7.690;2023-04-08T05:28:32;8.20;99.90
18450;DHT22;9354;50.194;7.690;2023-04-08T05:31:00;8.20;99.90
18450;DHT22;9354;50.194;7.690;2023-04-08T05:33:27;8.20;99.90
18450;DHT22;9354;50.194;7.690;2023-04-08T05:35:54;8.20;99.90
18450;DHT22;9354;50.194;7.690;2023-04-08T05:38:22;8.20;99.90
18450;DHT22;9354;50.194;7.690;2023-04-08T05:40:49;8.20;99.90
18450;DHT22;9354;50.194;7.690;2023-04-08T05:43:18;8.20;99.90
18450;DHT22;9354;50.194;7.690;2023-04-08T05:45:45;8.20;99.90
18450;DHT22;9354;50.194;7.690;2023-04-08T05:48:13;8.20;99.90
18450;DHT22;9354;50.194;7.690;2023-04-08T05:50:41;8.30;99.90
18450;DHT22;9354;50.194;7.690;2023-04-08T05:53:09;8.30;99.90
18450;DHT22;9354;50.194;7.690;2023-04-08T05:55:36;8.30;99.90
18450;DHT22;9354;50.194;7.690;2023-04-08T05:58:03;8.30;99.90
18450;DHT22;9354;50.194;7.690;2023-04-08T06:00:32;8.30;99.90
18450;DHT22;9354;50.194;7.690;2023-04-08T06:03:00;8.30;99.90
18450;DHT22;9354;50.194;7.690;2023-04-08T06:05:27;8.30;99.90
18450;DHT22;9354;50.194;7.690;2023-04-08T06:07:55;8.40;99.90
18450;DHT22;9354;50.194;7.690;2023-04-08T06:10:22;8.40;99.90
18450;DHT22;9354;50.194;7.690;2023-04-08T06:12:49;8.40;99.90
18450;DHT22;9354;50.194;7.690;2023-04-08T06:15:17;8.40;99.90
18450;DHT22;9354;50.194;7.690;2023-04-08T06:17:46;8.40;99.90
18450;DHT22;9354;50.194;7.690;2023-04-08T06:20:13;8.50;99.90
18450;DHT22;9354;50.194;7.690;2023-04-08T06:22:40;8.50;99.90
18450;DHT22;9354;50.194;7.690;2023-04-08T06:25:08;8.50;99.90
18450;DHT22;9354;50.194;7.690;2023-04-08T06:27:35;8.50;99.90
18450;DHT22;9354;50.194;7.690;2023-04-08T06:30:03;8.50;99.90
18450;DHT22;9354;50.194;7.690;2023-04-08T06:32:30;8.50;99.90
18450;DHT22;9354;50.194;7.690;2023-04-08T06:34:59;8.50;99.90
18450;DHT22;9354;50.194;7.690;2023-04-08T06:37:26;8.60;99.90
18450;DHT22;9354;50.194;7.690;2023-04-08T06:39:54;8.60;99.90
18450;DHT22;9354;50.194;7.690;2023-04-08T06:42:21;8.60;99.90
18450;DHT22;9354;50.194;7.690;2023-04-08T06:44:49;8.70;99.90
18450;DHT22;9354;50.194;7.690;2023-04-08T06:47:16;8.70;99.90
18450;DHT22;9354;50.194;7.690;2023-04-08T06:49:43;8.70;99.90
18450;DHT22;9354;50.194;7.690;2023-04-08T06:52:12;8.70;99.90
18450;DHT22;9354;50.194;7.690;2023-04-08T06:54:40;8.80;99.90
18450;DHT22;9354;50.194;7.690;2023-04-08T06:57:07;8.80;99.90
18450;DHT22;9354;50.194;7.690;2023-04-08T06:59:35;8.80;99.90
18450;DHT22;9354;50.194;7.690;2023-04-08T07:02:02;8.90;99.90
18450;DHT22;9354;50.194;7.690;2023-04-08T07:04:29;9.00;99.90
18450;DHT22;9354;50.194;7.690;2023-04-08T07:06:57;9.10;99.90
18450;DHT22;9354;50.194;7.690;2023-04-08T07:09:26;9.20;99.90
18450;DHT22;9354;50.194;7.690;2023-04-08T07:11:54;9.30;99.90
18450;DHT22;9354;50.194;7.690;2023-04-08T07:14:22;9.40;99.90
18450;DHT22;9354;50.194;7.690;2023-04-08T07:16:50;9.40;99.90
18450;DHT22;9354;50.194;7.690;2023-04-08T07:19:17;9.50;99.90
18450;DHT22;9354;50.194;7.690;2023-04-08T07:21:44;9.50;99.90
18450;DHT22;9354;50.194;7.690;2023-04-08T07:24:12;9.50;99.90
18450;DHT22;9354;50.194;7.690;2023-04-08T07:26:40;9.40;99.90
18450;DHT22;9354;50.194;7.690;2023-04-08T07:29:10;9.40;99.90
18450;DHT22;9354;50.194;7.690;2023-04-08T07:31:38;9.50;99.90
18450;DHT22;9354;50.194;7.690;2023-04-08T07:34:05;9.50;99.90
18450;DHT22;9354;50.194;7.690;2023-04-08T07:36:32;9.50;99.90
18450;DHT22;9354;50.194;7.690;2023-04-08T07:39:00;9.40;99.90
18450;DHT22;9354;50.194;7.690;2023-04-08T07:41:28;9.40;99.90
18450;DHT22;9354;50.194;7.690;2023-04-08T07:43:57;9.50;99.90
18450;DHT22;9354;50.194;7.690;2023-04-08T07:46:24;9.50;99.90
18450;DHT22;9354;50.194;7.690;2023-04-08T07:48:51;9.50;99.90
18450;DHT22;9354;50.194;7.690;2023-04-08T07:51:19;9.50;99.90
18450;DHT22;9354;50.194;7.690;2023-04-08T07:53:46;9.40;99.90
18450;DHT22;9354;50.194;7.690;2023-04-08T07:56:14;9.40;99.90
18450;DHT22;9354;50.194;7.690;2023-04-08T07:58:43;9.30;99.90
18450;DHT22;9354;50.194;7.690;2023-04-08T08:01:19;9.30;99.90
18450;DHT22;9354;50.194;7.690;2023-04-08T08:03:47;9.30;99.90
18450;DHT22;9354;50.194;7.690;2023-04-08T08:06:14;9.30;99.90
18450;DHT22;9354;50.194;7.690;2023-04-08T08:08:42;9.30;99.90
18450;DHT22;9354;50.194;7.690;2023-04-08T08:11:09;9.30;99.90
18450;DHT22;9354;50.194;7.690;2023-04-08T08:13:37;9.30;99.90
18450;DHT22;9354;50.194;7.690;2023-04-08T08:16:04;9.30;99.90
18450;DHT22;9354;50.194;7.690;2023-04-08T08:18:35;9.30;99.90
18450;DHT22;9354;50.194;7.690;2023-04-08T08:21:03;9.30;99.90
18450;DHT22;9354;50.194;7.690;2023-04-08T08:23:30;9.30;99.90
18450;DHT22;9354;50.194;7.690;2023-04-08T08:26:01;9.30;99.90
18450;DHT22;9354;50.194;7.690;2023-04-08T08:28:29;9.30;99.90
18450;DHT22;9354;50.194;7.690;2023-04-08T08:30:56;9.30;99.90
18450;DHT22;9354;50.194;7.690;2023-04-08T08:33:24;9.30;99.90
18450;DHT22;9354;50.194;7.690;2023-04-08T08:35:52;9.30;99.90
18450;DHT22;9354;50.194;7.690;2023-04-08T08:38:20;9.40;99.90
18450;DHT22;9354;50.194;7.690;2023-04-08T08:40:53;9.50;99.90
18450;DHT22;9354;50.194;7.690;2023-04-08T08:43:21;9.50;99.90
18450;DHT22;9354;50.194;7.690;2023-04-08T08:45:48;9.60;99.90
18450;DHT22;9354;50.194;7.690;2023-04-08T08:48:16;9.70;99.90
18450;DHT22;9354;50.194;7.690;2023-04-08T08:50:43;9.80;99.90
18450;DHT22;9354;50.194;7.690;2023-04-08T08:53:12;9.80;99.90
18450;DHT22;9354;50.194;7.690;2023-04-08T08:55:40;9.80;99.90
18450;DHT22;9354;50.194;7.690;2023-04-08T08:58:07;9.90;99.90
18450;DHT22;9354;50.194;7.690;2023-04-08T09:00:36;9.90;99.90
18450;DHT22;9354;50.194;7.690;2023-04-08T09:03:19;10.00;99.90
18450;DHT22;9354;50.194;7.690;2023-04-08T09:05:48;10.00;99.90
18450;DHT22;9354;50.194;7.690;2023-04-08T09:08:28;10.10;99.90
18450;DHT22;9354;50.194;7.690;2023-04-08T09:11:10;10.10;99.90
18450;DHT22;9354;50.194;7.690;2023-04-08T09:13:38;10.10;99.90
18450;DHT22;9354;50.194;7.690;2023-04-08T09:16:06;10.10;99.90
18450;DHT22;9354;50.194;7.690;2023-04-08T09:18:35;10.10;99.90
18450;DHT22;9354;50.194;7.690;2023-04-08T09:21:04;10.00;99.90
18450;DHT22;9354;50.194;7.690;2023-04-08T09:23:41;10.00;99.90
18450;DHT22;9354;50.194;7.690;2023-04-08T09:26:09;10.00;99.90
18450;DHT22;9354;50.194;7.690;2023-04-08T09:28:38;9.90;99.90
18450;DHT22;9354;50.194;7.690;2023-04-08T09:31:18;9.90;99.90
18450;DHT22;9354;50.194;7.690;2023-04-08T09:33:46;9.90;99.90
18450;DHT22;9354;50.194;7.690;2023-04-08T09:36:14;9.90;99.90
18450;DHT22;9354;50.194;7.690;2023-04-08T09:38:43;9.80;99.90
18450;DHT22;9354;50.194;7.690;2023-04-08T09:41:13;9.90;99.90
18450;DHT22;9354;50.194;7.690;2023-04-08T09:43:42;9.90;99.90
18450;DHT22;9354;50.194;7.690;2023-04-08T09:46:15;9.90;99.90
18450;DHT22;9354;50.194;7.690;2023-04-08T09:48:49;9.90;99.90
18450;DHT22;9354;50.194;7.690;2023-04-08T09:51:18;10.00;99.90
18450;DHT22;9354;50.194;7.690;2023-04-08T09:53:55;10.00;99.90
18450;DHT22;9354;50.194;7.690;2023-04-08T09:56:23;10.00;99.90
18450;DHT22;9354;50.194;7.690;2023-04-08T09:58:58;10.00;99.90
18450;DHT22;9354;50.194;7.690;2023-04-08T10:01:28;10.10;99.90
18450;DHT22;9354;50.194;7.690;2023-04-08T10:03:56;10.10;99.90
18450;DHT22;9354;50.194;7.690;2023-04-08T10:06:27;10.10;99.90
18450;DHT22;9354;50.194;7.690;2023-04-08T10:08:58;10.20;99.90
18450;DHT22;9354;50.194;7.690;2023-04-08T10:11:27;10.20;99.90
18450;DHT22;9354;50.194;7.690;2023-04-08T10:13:56;10.30;99.90
18450;DHT22;9354;50.194;7.690;2023-04-08T10:16:24;10.40;99.90
18450;DHT22;9354;50.194;7.690;2023-04-08T10:18:52;10.50;99.90
18450;DHT22;9354;50.194;7.690;2023-04-08T10:21:32;10.60;99.90
18450;DHT22;9354;50.194;7.690;2023-04-08T10:24:01;10.60;99.90
18450;DHT22;9354;50.194;7.690;2023-04-08T10:26:33;10.50;99.90
18450;DHT22;9354;50.194;7.690;2023-04-08T10:29:29;10.50;99.90
18450;DHT22;9354;50.194;7.690;2023-04-08T10:31:56;10.60;99.90
18450;DHT22;9354;50.194;7.690;2023-04-08T10:34:25;10.60;99.90
18450;DHT22;9354;50.194;7.690;2023-04-08T10:36:54;10.60;99.90
18450;DHT22;9354;50.194;7.690;2023-04-08T10:39:24;10.60;99.90
18450;DHT22;9354;50.194;7.690;2023-04-08T10:41:53;10.60;99.90
18450;DHT22;9354;50.194;7.690;2023-04-08T10:44:22;10.60;99.90
18450;DHT22;9354;50.194;7.690;2023-04-08T10:46:51;10.60;99.90
18450;DHT22;9354;50.194;7.690;2023-04-08T10:49:19;10.60;99.90
18450;DHT22;9354;50.194;7.690;2023-04-08T10:51:47;10.60;99.90
18450;DHT22;9354;50.194;7.690;2023-04-08T10:54:16;10.60;99.90
18450;DHT22;9354;50.194;7.690;2023-04-08T10:56:46;10.70;99.90
18450;DHT22;9354;50.194;7.690;2023-04-08T10:59:15;10.80;99.90
18450;DHT22;9354;50.194;7.690;2023-04-08T11:01:44;10.90;99.90
18450;DHT22;9354;50.194;7.690;2023-04-08T11:04:12;11.00;99.90
18450;DHT22;9354;50.194;7.690;2023-04-08T11:06:41;11.00;99.90
18450;DHT22;9354;50.194;7.690;2023-04-08T11:09:09;11.10;99.90
18450;DHT22;9354;50.194;7.690;2023-04-08T11:11:37;11.10;99.90
18450;DHT22;9354;50.194;7.690;2023-04-08T11:14:06;11.10;99.90
18450;DHT22;9354;50.194;7.690;2023-04-08T11:16:34;11.10;99.90
18450;DHT22;9354;50.194;7.690;2023-04-08T11:19:02;11.20;99.90
18450;DHT22;9354;50.194;7.690;2023-04-08T11:21:31;11.10;99.90
18450;DHT22;9354;50.194;7.690;2023-04-08T11:24:05;11.10;99.90
18450;DHT22;9354;50.194;7.690;2023-04-08T11:26:33;11.10;99.90
18450;DHT22;9354;50.194;7.690;2023-04-08T11:29:01;11.10;99.90
18450;DHT22;9354;50.194;7.690;2023-04-08T11:31:30;11.00;99.90
18450;DHT22;9354;50.194;7.690;2023-04-08T11:33:58;11.00;99.90
18450;DHT22;9354;50.194;7.690;2023-04-08T11:36:28;11.00;99.90
18450;DHT22;9354;50.194;7.690;2023-04-08T11:38:55;10.90;99.90
18450;DHT22;9354;50.194;7.690;2023-04-08T11:41:23;10.90;99.90
18450;DHT22;9354;50.194;7.690;2023-04-08T11:43:55;10.90;99.90
18450;DHT22;9354;50.194;7.690;2023-04-08T11:46:23;10.90;99.90
18450;DHT22;9354;50.194;7.690;2023-04-08T11:49:03;10.90;99.90
18450;DHT22;9354;50.194;7.690;2023-04-08T11:51:31;10.80;99.90
18450;DHT22;9354;50.194;7.690;2023-04-08T11:54:00;10.80;99.90
18450;DHT22;9354;50.194;7.690;2023-04-08T11:56:30;10.80;99.90
18450;DHT22;9354;50.194;7.690;2023-04-08T11:58:58;10.80;99.90
18450;DHT22;9354;50.194;7.690;2023-04-08T12:01:26;10.70;99.90
18450;DHT22;9354;50.194;7.690;2023-04-08T12:03:55;10.80;99.90
18450;DHT22;9354;50.194;7.690;2023-04-08T12:06:24;10.80;99.90
18450;DHT22;9354;50.194;7.690;2023-04-08T12:08:53;10.90;99.90
18450;DHT22;9354;50.194;7.690;2023-04-08T12:11:21;10.90;99.90
18450;DHT22;9354;50.194;7.690;2023-04-08T12:13:49;11.00;99.90
18450;DHT22;9354;50.194;7.690;2023-04-08T12:16:18;11.00;99.90
18450;DHT22;9354;50.194;7.690;2023-04-08T12:18:46;11.00;99.90
18450;DHT22;9354;50.194;7.690;2023-04-08T12:21:14;11.00;99.90
18450;DHT22;9354;50.194;7.690;2023-04-08T12:23:43;11.00;99.90
18450;DHT22;9354;50.194;7.690;2023-04-08T12:26:10;11.10;99.90
18450;DHT22;9354;50.194;7.690;2023-04-08T12:28:38;11.20;99.90
18450;DHT22;9354;50.194;7.690;2023-04-08T12:31:05;11.40;99.90
18450;DHT22;9354;50.194;7.690;2023-04-08T12:33:33;11.60;99.90
18450;DHT22;9354;50.194;7.690;2023-04-08T12:36:00;11.70;99.90
18450;DHT22;9354;50.194;7.690;2023-04-08T12:38:27;11.90;99.90
18450;DHT22;9354;50.194;7.690;2023-04-08T12:40:56;12.10;99.90
18450;DHT22;9354;50.194;7.690;2023-04-08T12:43:24;12.30;99.90
18450;DHT22;9354;50.194;7.690;2023-04-08T12:45:51;12.40;99.90
18450;DHT22;9354;50.194;7.690;2023-04-08T12:48:19;12.50;99.90
18450;DHT22;9354;50.194;7.690;2023-04-08T12:50:46;12.50;99.90
18450;DHT22;9354;50.194;7.690;2023-04-08T12:53:13;12.60;99.90
18450;DHT22;9354;50.194;7.690;2023-04-08T12:55:41;12.50;99.90
18450;DHT22;9354;50.194;7.690;2023-04-08T12:58:09;12.50;99.90
18450;DHT22;9354;50.194;7.690;2023-04-08T13:00:37;12.50;99.90
18450;DHT22;9354;50.194;7.690;2023-04-08T13:03:05;12.40;99.90
18450;DHT22;9354;50.194;7.690;2023-04-08T13:05:32;12.40;99.90
18450;DHT22;9354;50.194;7.690;2023-04-08T13:07:59;12.30;99.90
18450;DHT22;9354;50.194;7.690;2023-04-08T13:10:27;12.20;99.90
18450;DHT22;9354;50.194;7.690;2023-04-08T13:12:54;12.20;99.90
18450;DHT22;9354;50.194;7.690;2023-04-08T13:15:23;12.10;99.90
18450;DHT22;9354;50.194;7.690;2023-04-08T13:17:50;12.00;99.90
18450;DHT22;9354;50.194;7.690;2023-04-08T13:20:18;12.00;99.90
18450;DHT22;9354;50.194;7.690;2023-04-08T13:22:45;12.00;99.90
18450;DHT22;9354;50.194;7.690;2023-04-08T13:25:13;12.10;99.90
18450;DHT22;9354;50.194;7.690;2023-04-08T13:27:40;12.30;99.90
18450;DHT22;9354;50.194;7.690;2023-04-08T13:30:08;12.40;99.90
18450;DHT22;9354;50.194;7.690;2023-04-08T13:32:37;12.40;99.90
18450;DHT22;9354;50.194;7.690;2023-04-08T13:35:05;12.40;99.90
18450;DHT22;9354;50.194;7.690;2023-04-08T13:37:33;12.40;99.90
18450;DHT22;9354;50.194;7.690;2023-04-08T13:40:00;12.50;99.90
18450;DHT22;9354;50.194;7.690;2023-04-08T13:42:28;12.50;99.90
18450;DHT22;9354;50.194;7.690;2023-04-08T13:44:56;12.60;99.90
18450;DHT22;9354;50.194;7.690;2023-04-08T13:47:24;12.60;99.90
18450;DHT22;9354;50.194;7.690;2023-04-08T13:49:53;12.60;99.90
18450;DHT22;9354;50.194;7.690;2023-04-08T13:52:20;12.60;99.90
18450;DHT22;9354;50.194;7.690;2023-04-08T13:54:48;12.50;99.90
18450;DHT22;9354;50.194;7.690;2023-04-08T13:57:15;12.40;99.90
18450;DHT22;9354;50.194;7.690;2023-04-08T13:59:42;12.30;99.90
18450;DHT22;9354;50.194;7.690;2023-04-08T14:02:10;12.20;99.90
18450;DHT22;9354;50.194;7.690;2023-04-08T14:04:37;12.20;99.90
18450;DHT22;9354;50.194;7.690;2023-04-08T14:07:07;12.10;99.90
18450;DHT22;9354;50.194;7.690;2023-04-08T14:09:34;12.00;99.90
18450;DHT22;9354;50.194;7.690;2023-04-08T14:12:02;12.00;99.90
18450;DHT22;9354;50.194;7.690;2023-04-08T14:14:30;11.90;99.90
18450;DHT22;9354;50.194;7.690;2023-04-08T14:16:58;11.80;99.90
18450;DHT22;9354;50.194;7.690;2023-04-08T14:19:25;11.80;99.90
18450;DHT22;9354;50.194;7.690;2023-04-08T14:21:53;11.80;99.90
18450;DHT22;9354;50.194;7.690;2023-04-08T14:24:21;11.80;99.90
18450;DHT22;9354;50.194;7.690;2023-04-08T14:26:49;11.90;99.90
18450;DHT22;9354;50.194;7.690;2023-04-08T14:29:16;11.90;99.90
18450;DHT22;9354;50.194;7.690;2023-04-08T14:31:43;11.90;99.90
18450;DHT22;9354;50.194;7.690;2023-04-08T14:34:11;12.00;99.90
18450;DHT22;9354;50.194;7.690;2023-04-08T14:36:38;12.10;99.90
18450;DHT22;9354;50.194;7.690;2023-04-08T14:39:05;12.10;99.90
18450;DHT22;9354;50.194;7.690;2023-04-08T14:41:34;12.10;99.90
18450;DHT22;9354;50.194;7.690;2023-04-08T14:44:03;12.10;99.90
18450;DHT22;9354;50.194;7.690;2023-04-08T14:46:30;12.10;99.90
18450;DHT22;9354;50.194;7.690;2023-04-08T14:48:58;12.10;99.90
18450;DHT22;9354;50.194;7.690;2023-04-08T14:51:26;12.10;99.90
18450;DHT22;9354;50.194;7.690;2023-04-08T14:53:53;12.00;99.90
18450;DHT22;9354;50.194;7.690;2023-04-08T14:56:20;12.00;99.90
18450;DHT22;9354;50.194;7.690;2023-04-08T14:58:49;11.90;99.90
18450;DHT22;9354;50.194;7.690;2023-04-08T15:01:16;11.90;99.90
18450;DHT22;9354;50.194;7.690;2023-04-08T15:03:44;11.90;99.90
18450;DHT22;9354;50.194;7.690;2023-04-08T15:06:12;11.90;99.90
18450;DHT22;9354;50.194;7.690;2023-04-08T15:08:42;11.80;99.90
18450;DHT22;9354;50.194;7.690;2023-04-08T15:11:10;11.80;99.90
18450;DHT22;9354;50.194;7.690;2023-04-08T15:13:38;11.80;99.90
18450;DHT22;9354;50.194;7.690;2023-04-08T15:16:07;11.70;99.90
18450;DHT22;9354;50.194;7.690;2023-04-08T15:18:34;11.70;99.90
18450;DHT22;9354;50.194;7.690;2023-04-08T15:21:02;11.70;99.90
18450;DHT22;9354;50.194;7.690;2023-04-08T15:23:30;11.80;99.90
18450;DHT22;9354;50.194;7.690;2023-04-08T15:25:57;11.80;99.90
18450;DHT22;9354;50.194;7.690;2023-04-08T15:28:25;11.90;99.90
18450;DHT22;9354;50.194;7.690;2023-04-08T15:30:53;12.10;99.90
18450;DHT22;9354;50.194;7.690;2023-04-08T15:33:22;12.10;99.90
18450;DHT22;9354;50.194;7.690;2023-04-08T15:35:49;12.10;99.90
18450;DHT22;9354;50.194;7.690;2023-04-08T15:38:17;12.10;99.90
18450;DHT22;9354;50.194;7.690;2023-04-08T15:40:44;12.10;99.90
18450;DHT22;9354;50.194;7.690;2023-04-08T15:43:12;12.10;99.90
18450;DHT22;9354;50.194;7.690;2023-04-08T15:45:41;12.10;99.90
18450;DHT22;9354;50.194;7.690;2023-04-08T15:48:09;12.10;99.90
18450;DHT22;9354;50.194;7.690;2023-04-08T15:50:39;12.00;99.90
18450;DHT22;9354;50.194;7.690;2023-04-08T15:53:07;11.90;99.90
18450;DHT22;9354;50.194;7.690;2023-04-08T15:55:38;11.90;99.90
18450;DHT22;9354;50.194;7.690;2023-04-08T15:58:06;11.80;99.90
18450;DHT22;9354;50.194;7.690;2023-04-08T16:00:33;11.80;99.90
18450;DHT22;9354;50.194;7.690;2023-04-08T16:03:01;11.70;99.90